sensor_id;sensor_type;location;lat;lon;timestamp;P1;durP1;ratioP1;P2;durP2;ratioP2
40621;SDS011;26324;52.040;11.528;2022-07-29T00:02:06;1999.90;;;999.90;;
40621;SDS011;26324;52.040;11.528;2022-07-29T00:04:33;1999.90;;;999.90;;
40621;SDS011;26324;52.040;11.528;2022-07-29T00:07:00;1999.90;;;999.90;;
40621;SDS011;26324;52.040;11.528;2022-07-29T00:09:25;1999.90;;;999.90;;
40621;SDS011;26324;52.040;11.528;2022-07-29T00:11:51;1999.90;;;999.90;;
40621;SDS011;26324;52.040;11.528;2022-07-29T00:14:16;1999.90;;;999.90;;
40621;SDS011;26324;52.040;11.528;2022-07-29T00:16:42;1999.90;;;999.90;;
40621;SDS011;26324;52.040;11.528;2022-07-29T00:19:07;1999.90;;;999.90;;
40621;SDS011;26324;52.040;11.528;2022-07-29T00:21:33;1999.90;;;999.90;;
40621;SDS011;26324;52.040;11.528;2022-07-29T00:23:59;1999.90;;;999.90;;
40621;SDS011;26324;52.040;11.528;2022-07-29T00:26:24;1999.90;;;999.90;;
40621;SDS011;26324;52.040;11.528;2022-07-29T00:28:52;1999.90;;;999.90;;
40621;SDS011;26324;52.040;11.528;2022-07-29T00:31:18;1999.90;;;999.90;;
40621;SDS011;26324;52.040;11.528;2022-07-29T00:33:43;1999.90;;;999.90;;
40621;SDS011;26324;52.040;11.528;2022-07-29T00:36:09;1999.90;;;999.90;;
40621;SDS011;26324;52.040;11.528;2022-07-29T00:38:34;1999.90;;;999.90;;
40621;SDS011;26324;52.040;11.528;2022-07-29T00:40:59;1999.90;;;999.90;;
40621;SDS011;26324;52.040;11.528;2022-07-29T00:43:25;1999.90;;;999.90;;
40621;SDS011;26324;52.040;11.528;2022-07-29T00:45:51;1999.90;;;999.90;;
40621;SDS011;26324;52.040;11.528;2022-07-29T00:48:16;1999.90;;;999.90;;
40621;SDS011;26324;52.040;11.528;2022-07-29T00:50:42;1999.90;;;999.90;;
40621;SDS011;26324;52.040;11.528;2022-07-29T00:53:07;1999.90;;;999.90;;
40621;SDS011;26324;52.040;11.528;2022-07-29T00:55:33;1999.90;;;999.90;;
40621;SDS011;26324;52.040;11.528;2022-07-29T00:57:59;1999.90;;;999.90;;
40621;SDS011;26324;52.040;11.528;2022-07-29T01:00:26;1999.90;;;999.90;;
40621;SDS011;26324;52.040;11.528;2022-07-29T01:02:52;1999.90;;;999.90;;
40621;SDS011;26324;52.040;11.528;2022-07-29T01:05:19;1999.90;;;999.90;;
40621;SDS011;26324;52.040;11.528;2022-07-29T01:07:47;1999.90;;;999.90;;
40621;SDS011;26324;52.040;11.528;2022-07-29T01:10:16;1999.90;;;999.90;;
40621;SDS011;26324;52.040;11.528;2022-07-29T01:12:45;1999.90;;;999.90;;
40621;SDS011;26324;52.040;11.528;2022-07-29T01:15:12;1999.90;;;999.90;;
40621;SDS011;26324;52.040;11.528;2022-07-29T01:17:45;1999.90;;;999.90;;
40621;SDS011;26324;52.040;11.528;2022-07-29T01:20:24;1999.90;;;999.90;;
40621;SDS011;26324;52.040;11.528;2022-07-29T01:26:22;1999.90;;;999.90;;
40621;SDS011;26324;52.040;11.528;2022-07-29T01:29:06;1999.90;;;999.90;;
40621;SDS011;26324;52.040;11.528;2022-07-29T01:34:17;1999.90;;;999.90;;
40621;SDS011;26324;52.040;11.528;2022-07-29T01:37:11;1999.90;;;999.90;;
40621;SDS011;26324;52.040;11.528;2022-07-29T01:39:43;1999.90;;;999.90;;
40621;SDS011;26324;52.040;11.528;2022-07-29T01:42:14;1999.90;;;999.90;;
40621;SDS011;26324;52.040;11.528;2022-07-29T01:44:46;1999.90;;;999.90;;
40621;SDS011;26324;52.040;11.528;2022-07-29T01:47:19;1999.90;;;999.90;;
40621;SDS011;26324;52.040;11.528;2022-07-29T01:49:49;1999.90;;;999.90;;
40621;SDS011;26324;52.040;11.528;2022-07-29T01:52:26;1999.90;;;999.90;;
40621;SDS011;26324;52.040;11.528;2022-07-29T01:54:57;1999.90;;;999.90;;
40621;SDS011;26324;52.040;11.528;2022-07-29T01:57:28;1999.90;;;999.90;;
40621;SDS011;26324;52.040;11.528;2022-07-29T01:59:57;1999.90;;;999.90;;
40621;SDS011;26324;52.040;11.528;2022-07-29T02:02:24;1999.90;;;999.90;;
40621;SDS011;26324;52.040;11.528;2022-07-29T02:04:51;1999.90;;;999.90;;
40621;SDS011;26324;52.040;11.528;2022-07-29T02:07:19;1999.90;;;999.90;;
40621;SDS011;26324;52.040;11.528;2022-07-29T02:09:47;1999.90;;;999.90;;
40621;SDS011;26324;52.040;11.528;2022-07-29T02:12:14;1999.90;;;999.90;;
40621;SDS011;26324;52.040;11.528;2022-07-29T02:14:47;1999.90;;;999.90;;
40621;SDS011;26324;52.040;11.528;2022-07-29T02:17:16;1999.90;;;999.90;;
40621;SDS011;26324;52.040;11.528;2022-07-29T02:19:48;1999.90;;;999.90;;
40621;SDS011;26324;52.040;11.528;2022-07-29T02:22:15;1999.90;;;999.90;;
40621;SDS011;26324;52.040;11.528;2022-07-29T02:24:43;1999.90;;;999.90;;
40621;SDS011;26324;52.040;11.528;2022-07-29T02:27:09;1999.90;;;999.90;;
40621;SDS011;26324;52.040;11.528;2022-07-29T02:29:36;1999.90;;;999.90;;
40621;SDS011;26324;52.040;11.528;2022-07-29T02:32:03;1999.90;;;999.90;;
40621;SDS011;26324;52.040;11.528;2022-07-29T02:34:30;1999.90;;;999.90;;
40621;SDS011;26324;52.040;11.528;2022-07-29T02:36:56;1999.90;;;999.90;;
40621;SDS011;26324;52.040;11.528;2022-07-29T02:39:23;1999.90;;;999.90;;
40621;SDS011;26324;52.040;11.528;2022-07-29T02:41:51;1999.90;;;999.90;;
40621;SDS011;26324;52.040;11.528;2022-07-29T02:44:20;1999.90;;;999.90;;
40621;SDS011;26324;52.040;11.528;2022-07-29T02:46:53;1999.90;;;999.90;;
40621;SDS011;26324;52.040;11.528;2022-07-29T02:49:35;1999.90;;;999.90;;
40621;SDS011;26324;52.040;11.528;2022-07-29T02:52:08;1999.90;;;999.90;;
40621;SDS011;26324;52.040;11.528;2022-07-29T02:57:51;1999.90;;;999.90;;
40621;SDS011;26324;52.040;11.528;2022-07-29T03:00:25;1999.90;;;999.90;;
40621;SDS011;26324;52.040;11.528;2022-07-29T03:02:53;1999.90;;;999.90;;
40621;SDS011;26324;52.040;11.528;2022-07-29T03:05:21;1999.90;;;999.90;;
40621;SDS011;26324;52.040;11.528;2022-07-29T03:07:58;1999.90;;;999.90;;
40621;SDS011;26324;52.040;11.528;2022-07-29T03:10:27;1999.90;;;999.90;;
40621;SDS011;26324;52.040;11.528;2022-07-29T03:12:54;1999.90;;;999.90;;
40621;SDS011;26324;52.040;11.528;2022-07-29T03:15:20;1999.90;;;999.90;;
40621;SDS011;26324;52.040;11.528;2022-07-29T03:17:46;1999.90;;;999.90;;
40621;SDS011;26324;52.040;11.528;2022-07-29T03:20:12;1999.90;;;999.90;;
40621;SDS011;26324;52.040;11.528;2022-07-29T03:22:42;1999.90;;;999.90;;
40621;SDS011;26324;52.040;11.528;2022-07-29T03:25:12;1999.90;;;999.90;;
40621;SDS011;26324;52.040;11.528;2022-07-29T03:27:39;1999.90;;;999.90;;
40621;SDS011;26324;52.040;11.528;2022-07-29T03:30:05;1999.90;;;999.90;;
40621;SDS011;26324;52.040;11.528;2022-07-29T03:32:31;1999.90;;;999.90;;
40621;SDS011;26324;52.040;11.528;2022-07-29T03:34:57;1999.90;;;999.90;;
40621;SDS011;26324;52.040;11.528;2022-07-29T03:37:22;1999.90;;;999.90;;
40621;SDS011;26324;52.040;11.528;2022-07-29T03:39:48;1999.90;;;999.90;;
40621;SDS011;26324;52.040;11.528;2022-07-29T03:42:15;1999.90;;;999.90;;
40621;SDS011;26324;52.040;11.528;2022-07-29T03:44:44;1999.90;;;999.90;;
40621;SDS011;26324;52.040;11.528;2022-07-29T03:47:12;1999.90;;;999.90;;
40621;SDS011;26324;52.040;11.528;2022-07-29T03:49:39;1999.90;;;999.90;;
40621;SDS011;26324;52.040;11.528;2022-07-29T03:52:05;1999.90;;;999.90;;
40621;SDS011;26324;52.040;11.528;2022-07-29T03:54:31;1999.90;;;999.90;;
40621;SDS011;26324;52.040;11.528;2022-07-29T03:56:57;1999.90;;;999.90;;
40621;SDS011;26324;52.040;11.528;2022-07-29T03:59:25;1999.90;;;999.90;;
40621;SDS011;26324;52.040;11.528;2022-07-29T04:01:52;1999.90;;;999.90;;
40621;SDS011;26324;52.040;11.528;2022-07-29T04:04:20;1999.90;;;999.90;;
40621;SDS011;26324;52.040;11.528;2022-07-29T04:06:46;1999.90;;;999.90;;
40621;SDS011;26324;52.040;11.528;2022-07-29T04:09:12;1999.90;;;999.90;;
40621;SDS011;26324;52.040;11.528;2022-07-29T04:11:38;1999.90;;;999.90;;
40621;SDS011;26324;52.040;11.528;2022-07-29T04:14:05;1999.90;;;999.90;;
40621;SDS011;26324;52.040;11.528;2022-07-29T04:16:31;1999.90;;;999.90;;
40621;SDS011;26324;52.040;11.528;2022-07-29T04:18:57;1999.90;;;999.90;;
40621;SDS011;26324;52.040;11.528;2022-07-29T04:21:22;1999.90;;;999.90;;
40621;SDS011;26324;52.040;11.528;2022-07-29T04:23:48;1999.90;;;999.90;;
40621;SDS011;26324;52.040;11.528;2022-07-29T04:26:16;1999.90;;;999.90;;
40621;SDS011;26324;52.040;11.528;2022-07-29T04:28:43;1999.90;;;999.90;;
40621;SDS011;26324;52.040;11.528;2022-07-29T04:31:09;1999.90;;;999.90;;
40621;SDS011;26324;52.040;11.528;2022-07-29T04:33:35;1999.90;;;999.90;;
40621;SDS011;26324;52.040;11.528;2022-07-29T04:36:01;1999.90;;;999.90;;
40621;SDS011;26324;52.040;11.528;2022-07-29T04:38:26;1999.90;;;999.90;;
40621;SDS011;26324;52.040;11.528;2022-07-29T04:40:52;1999.90;;;999.90;;
40621;SDS011;26324;52.040;11.528;2022-07-29T04:43:17;1999.90;;;999.90;;
40621;SDS011;26324;52.040;11.528;2022-07-29T04:45:43;1999.90;;;999.90;;
40621;SDS011;26324;52.040;11.528;2022-07-29T04:48:08;1999.90;;;999.90;;
40621;SDS011;26324;52.040;11.528;2022-07-29T04:50:34;1999.90;;;999.90;;
40621;SDS011;26324;52.040;11.528;2022-07-29T04:52:59;1999.90;;;999.90;;
40621;SDS011;26324;52.040;11.528;2022-07-29T04:55:25;1999.90;;;999.90;;
40621;SDS011;26324;52.040;11.528;2022-07-29T04:57:51;1999.90;;;999.90;;
40621;SDS011;26324;52.040;11.528;2022-07-29T05:00:16;1999.90;;;999.90;;
40621;SDS011;26324;52.040;11.528;2022-07-29T05:02:42;1999.90;;;999.90;;
40621;SDS011;26324;52.040;11.528;2022-07-29T05:05:07;1999.90;;;999.90;;
40621;SDS011;26324;52.040;11.528;2022-07-29T05:07:33;1999.90;;;999.90;;
40621;SDS011;26324;52.040;11.528;2022-07-29T05:09:58;1999.90;;;999.90;;
40621;SDS011;26324;52.040;11.528;2022-07-29T05:12:24;1999.90;;;999.90;;
40621;SDS011;26324;52.040;11.528;2022-07-29T05:14:50;1999.90;;;999.90;;
40621;SDS011;26324;52.040;11.528;2022-07-29T05:17:16;1999.90;;;999.90;;
40621;SDS011;26324;52.040;11.528;2022-07-29T05:19:43;1999.90;;;999.90;;
40621;SDS011;26324;52.040;11.528;2022-07-29T05:22:08;1999.90;;;999.90;;
40621;SDS011;26324;52.040;11.528;2022-07-29T05:24:34;1999.90;;;999.90;;
40621;SDS011;26324;52.040;11.528;2022-07-29T05:26:59;1999.90;;;999.90;;
40621;SDS011;26324;52.040;11.528;2022-07-29T05:29:25;1999.90;;;999.90;;
40621;SDS011;26324;52.040;11.528;2022-07-29T05:31:51;1999.90;;;999.90;;
40621;SDS011;26324;52.040;11.528;2022-07-29T05:34:17;1999.90;;;999.90;;
40621;SDS011;26324;52.040;11.528;2022-07-29T05:36:43;1999.90;;;999.90;;
40621;SDS011;26324;52.040;11.528;2022-07-29T05:39:10;1999.90;;;999.90;;
40621;SDS011;26324;52.040;11.528;2022-07-29T05:41:35;1999.90;;;999.90;;
40621;SDS011;26324;52.040;11.528;2022-07-29T05:44:01;1999.90;;;999.90;;
40621;SDS011;26324;52.040;11.528;2022-07-29T05:46:27;1999.90;;;999.90;;
40621;SDS011;26324;52.040;11.528;2022-07-29T05:48:53;1999.90;;;999.90;;
40621;SDS011;26324;52.040;11.528;2022-07-29T05:51:18;1999.90;;;999.90;;
40621;SDS011;26324;52.040;11.528;2022-07-29T05:53:44;1999.90;;;999.90;;
40621;SDS011;26324;52.040;11.528;2022-07-29T05:56:09;1999.90;;;999.90;;
40621;SDS011;26324;52.040;11.528;2022-07-29T05:58:35;1999.90;;;999.90;;
40621;SDS011;26324;52.040;11.528;2022-07-29T06:01:01;1999.90;;;999.90;;
40621;SDS011;26324;52.040;11.528;2022-07-29T06:03:27;1999.90;;;999.90;;
40621;SDS011;26324;52.040;11.528;2022-07-29T06:05:52;1999.90;;;999.90;;
40621;SDS011;26324;52.040;11.528;2022-07-29T06:08:18;1999.90;;;999.90;;
40621;SDS011;26324;52.040;11.528;2022-07-29T06:10:43;1999.90;;;999.90;;
40621;SDS011;26324;52.040;11.528;2022-07-29T06:13:10;1999.90;;;999.90;;
40621;SDS011;26324;52.040;11.528;2022-07-29T06:15:36;1999.90;;;999.90;;
40621;SDS011;26324;52.040;11.528;2022-07-29T06:18:02;1999.90;;;999.90;;
40621;SDS011;26324;52.040;11.528;2022-07-29T06:20:28;1999.90;;;999.90;;
40621;SDS011;26324;52.040;11.528;2022-07-29T06:22:54;1999.90;;;999.90;;
40621;SDS011;26324;52.040;11.528;2022-07-29T06:25:20;1999.90;;;999.90;;
40621;SDS011;26324;52.040;11.528;2022-07-29T06:27:46;1999.90;;;999.90;;
40621;SDS011;26324;52.040;11.528;2022-07-29T06:30:12;1999.90;;;999.90;;
40621;SDS011;26324;52.040;11.528;2022-07-29T06:32:37;1999.90;;;999.90;;
40621;SDS011;26324;52.040;11.528;2022-07-29T06:35:03;1999.90;;;999.90;;
40621;SDS011;26324;52.040;11.528;2022-07-29T06:37:29;1999.90;;;999.90;;
40621;SDS011;26324;52.040;11.528;2022-07-29T06:39:54;1999.90;;;999.90;;
40621;SDS011;26324;52.040;11.528;2022-07-29T06:42:42;1999.90;;;999.90;;
40621;SDS011;26324;52.040;11.528;2022-07-29T06:45:09;1999.90;;;999.90;;
40621;SDS011;26324;52.040;11.528;2022-07-29T06:47:35;1999.90;;;999.90;;
40621;SDS011;26324;52.040;11.528;2022-07-29T06:50:00;1999.90;;;999.90;;
40621;SDS011;26324;52.040;11.528;2022-07-29T06:52:26;1999.90;;;999.90;;
40621;SDS011;26324;52.040;11.528;2022-07-29T06:54:51;1999.90;;;999.90;;
40621;SDS011;26324;52.040;11.528;2022-07-29T06:57:17;1999.90;;;999.90;;
40621;SDS011;26324;52.040;11.528;2022-07-29T06:59:42;1999.90;;;999.90;;
40621;SDS011;26324;52.040;11.528;2022-07-29T07:02:08;1999.90;;;999.90;;
40621;SDS011;26324;52.040;11.528;2022-07-29T07:04:33;1999.90;;;999.90;;
40621;SDS011;26324;52.040;11.528;2022-07-29T07:06:59;1999.90;;;999.90;;
40621;SDS011;26324;52.040;11.528;2022-07-29T07:09:25;1999.90;;;999.90;;
40621;SDS011;26324;52.040;11.528;2022-07-29T07:11:50;1999.90;;;999.90;;
40621;SDS011;26324;52.040;11.528;2022-07-29T07:14:16;1999.90;;;999.90;;
40621;SDS011;26324;52.040;11.528;2022-07-29T07:16:41;1999.90;;;999.90;;
40621;SDS011;26324;52.040;11.528;2022-07-29T07:19:07;1999.90;;;999.90;;
40621;SDS011;26324;52.040;11.528;2022-07-29T07:21:32;1999.90;;;999.90;;
40621;SDS011;26324;52.040;11.528;2022-07-29T07:23:59;1999.90;;;999.90;;
40621;SDS011;26324;52.040;11.528;2022-07-29T07:26:25;1999.90;;;999.90;;
40621;SDS011;26324;52.040;11.528;2022-07-29T07:28:50;1999.90;;;999.90;;
40621;SDS011;26324;52.040;11.528;2022-07-29T07:31:17;1999.90;;;999.90;;
40621;SDS011;26324;52.040;11.528;2022-07-29T07:33:42;1999.90;;;999.90;;
40621;SDS011;26324;52.040;11.528;2022-07-29T07:36:08;1999.90;;;999.90;;
40621;SDS011;26324;52.040;11.528;2022-07-29T07:38:33;1999.90;;;999.90;;
40621;SDS011;26324;52.040;11.528;2022-07-29T07:40:59;1999.90;;;999.90;;
40621;SDS011;26324;52.040;11.528;2022-07-29T07:43:26;1999.90;;;999.90;;
40621;SDS011;26324;52.040;11.528;2022-07-29T07:45:51;1999.90;;;999.90;;
40621;SDS011;26324;52.040;11.528;2022-07-29T07:48:17;1999.90;;;999.90;;
40621;SDS011;26324;52.040;11.528;2022-07-29T07:50:43;1999.90;;;999.90;;
40621;SDS011;26324;52.040;11.528;2022-07-29T07:53:09;1999.90;;;999.90;;
40621;SDS011;26324;52.040;11.528;2022-07-29T07:55:39;1999.90;;;999.90;;
40621;SDS011;26324;52.040;11.528;2022-07-29T07:58:05;1999.90;;;999.90;;
40621;SDS011;26324;52.040;11.528;2022-07-29T08:00:31;1999.90;;;999.90;;
40621;SDS011;26324;52.040;11.528;2022-07-29T08:02:57;1999.90;;;999.90;;
40621;SDS011;26324;52.040;11.528;2022-07-29T08:05:23;1999.90;;;999.90;;
40621;SDS011;26324;52.040;11.528;2022-07-29T08:07:48;1999.90;;;999.90;;
40621;SDS011;26324;52.040;11.528;2022-07-29T08:10:15;1999.90;;;999.90;;
40621;SDS011;26324;52.040;11.528;2022-07-29T08:13:04;1999.90;;;999.90;;
40621;SDS011;26324;52.040;11.528;2022-07-29T08:15:31;1999.90;;;999.90;;
40621;SDS011;26324;52.040;11.528;2022-07-29T08:17:57;1999.90;;;999.90;;
40621;SDS011;26324;52.040;11.528;2022-07-29T08:20:23;1999.90;;;999.90;;
40621;SDS011;26324;52.040;11.528;2022-07-29T08:22:49;1999.90;;;999.90;;
40621;SDS011;26324;52.040;11.528;2022-07-29T08:25:15;1999.90;;;999.90;;
40621;SDS011;26324;52.040;11.528;2022-07-29T08:27:42;1999.90;;;999.90;;
40621;SDS011;26324;52.040;11.528;2022-07-29T08:30:08;1999.90;;;999.90;;
40621;SDS011;26324;52.040;11.528;2022-07-29T08:32:35;1999.90;;;999.90;;
40621;SDS011;26324;52.040;11.528;2022-07-29T08:35:01;1999.90;;;999.90;;
40621;SDS011;26324;52.040;11.528;2022-07-29T08:37:26;1999.90;;;999.90;;
40621;SDS011;26324;52.040;11.528;2022-07-29T08:39:52;1999.90;;;999.90;;
40621;SDS011;26324;52.040;11.528;2022-07-29T08:42:17;1999.90;;;999.90;;
40621;SDS011;26324;52.040;11.528;2022-07-29T08:44:43;1999.90;;;999.90;;
40621;SDS011;26324;52.040;11.528;2022-07-29T08:47:08;1999.90;;;999.90;;
40621;SDS011;26324;52.040;11.528;2022-07-29T08:49:34;1999.90;;;999.90;;
40621;SDS011;26324;52.040;11.528;2022-07-29T08:52:00;1999.90;;;999.90;;
40621;SDS011;26324;52.040;11.528;2022-07-29T08:54:26;1999.90;;;999.90;;
40621;SDS011;26324;52.040;11.528;2022-07-29T08:56:52;1999.90;;;999.90;;
40621;SDS011;26324;52.040;11.528;2022-07-29T08:59:20;1999.90;;;999.90;;
40621;SDS011;26324;52.040;11.528;2022-07-29T09:01:47;1999.90;;;999.90;;
40621;SDS011;26324;52.040;11.528;2022-07-29T09:04:13;1999.90;;;999.90;;
40621;SDS011;26324;52.040;11.528;2022-07-29T09:06:44;1999.90;;;999.90;;
40621;SDS011;26324;52.040;11.528;2022-07-29T09:09:13;1999.90;;;999.90;;
40621;SDS011;26324;52.040;11.528;2022-07-29T09:11:40;1999.90;;;999.90;;
40621;SDS011;26324;52.040;11.528;2022-07-29T09:14:06;1999.90;;;999.90;;
40621;SDS011;26324;52.040;11.528;2022-07-29T09:16:45;1999.90;;;999.90;;
40621;SDS011;26324;52.040;11.528;2022-07-29T09:19:27;1999.90;;;999.90;;
40621;SDS011;26324;52.040;11.528;2022-07-29T09:21:55;1999.90;;;999.90;;
40621;SDS011;26324;52.040;11.528;2022-07-29T09:24:23;1999.90;;;999.90;;
40621;SDS011;26324;52.040;11.528;2022-07-29T09:26:49;1999.90;;;999.90;;
40621;SDS011;26324;52.040;11.528;2022-07-29T09:29:16;1999.90;;;999.90;;
40621;SDS011;26324;52.040;11.528;2022-07-29T09:31:44;1999.90;;;999.90;;
40621;SDS011;26324;52.040;11.528;2022-07-29T09:34:11;1999.90;;;999.90;;
40621;SDS011;26324;52.040;11.528;2022-07-29T09:36:49;1999.90;;;999.90;;
40621;SDS011;26324;52.040;11.528;2022-07-29T09:39:17;1999.90;;;999.90;;
40621;SDS011;26324;52.040;11.528;2022-07-29T09:41:57;1999.90;;;999.90;;
40621;SDS011;26324;52.040;11.528;2022-07-29T09:44:24;1999.90;;;999.90;;
40621;SDS011;26324;52.040;11.528;2022-07-29T09:47:03;1999.90;;;999.90;;
40621;SDS011;26324;52.040;11.528;2022-07-29T09:49:33;1999.90;;;999.90;;
40621;SDS011;26324;52.040;11.528;2022-07-29T09:52:03;1999.90;;;999.90;;
40621;SDS011;26324;52.040;11.528;2022-07-29T09:54:33;1999.90;;;999.90;;
40621;SDS011;26324;52.040;11.528;2022-07-29T09:57:06;1999.90;;;999.90;;
40621;SDS011;26324;52.040;11.528;2022-07-29T09:59:37;1999.90;;;999.90;;
40621;SDS011;26324;52.040;11.528;2022-07-29T10:02:10;1999.90;;;999.90;;
40621;SDS011;26324;52.040;11.528;2022-07-29T10:04:40;1999.90;;;999.90;;
40621;SDS011;26324;52.040;11.528;2022-07-29T10:07:07;1999.90;;;999.90;;
40621;SDS011;26324;52.040;11.528;2022-07-29T10:09:33;1999.90;;;999.90;;
40621;SDS011;26324;52.040;11.528;2022-07-29T10:12:13;1999.90;;;999.90;;
40621;SDS011;26324;52.040;11.528;2022-07-29T10:14:39;1999.90;;;999.90;;
40621;SDS011;26324;52.040;11.528;2022-07-29T10:17:06;1999.90;;;999.90;;
40621;SDS011;26324;52.040;11.528;2022-07-29T10:19:32;1999.90;;;999.90;;
40621;SDS011;26324;52.040;11.528;2022-07-29T10:22:00;1999.90;;;999.90;;
40621;SDS011;26324;52.040;11.528;2022-07-29T10:24:29;1999.90;;;999.90;;
40621;SDS011;26324;52.040;11.528;2022-07-29T10:26:56;1999.90;;;999.90;;
40621;SDS011;26324;52.040;11.528;2022-07-29T10:29:23;1999.90;;;999.90;;
40621;SDS011;26324;52.040;11.528;2022-07-29T10:31:53;1999.90;;;999.90;;
40621;SDS011;26324;52.040;11.528;2022-07-29T10:43:57;1407.53;;;627.47;;
40621;SDS011;26324;52.040;11.528;2022-07-29T10:46:23;1999.90;;;999.90;;
40621;SDS011;26324;52.040;11.528;2022-07-29T10:49:06;1999.90;;;999.90;;
40621;SDS011;26324;52.040;11.528;2022-07-29T11:00:25;1999.90;;;999.90;;
40621;SDS011;26324;52.040;11.528;2022-07-29T11:02:40;1923.18;;;869.80;;
40621;SDS011;26324;52.040;11.528;2022-07-29T11:05:14;1979.18;;;704.05;;
40621;SDS011;26324;52.040;11.528;2022-07-29T11:10:33;1999.90;;;999.90;;
40621;SDS011;26324;52.040;11.528;2022-07-29T11:12:58;1999.90;;;999.90;;
40621;SDS011;26324;52.040;11.528;2022-07-29T11:15:24;1999.90;;;999.90;;
40621;SDS011;26324;52.040;11.528;2022-07-29T11:20:35;1999.90;;;999.90;;
40621;SDS011;26324;52.040;11.528;2022-07-29T11:31:16;1999.90;;;999.90;;
40621;SDS011;26324;52.040;11.528;2022-07-29T11:34:16;1999.90;;;999.90;;
40621;SDS011;26324;52.040;11.528;2022-07-29T11:39:31;1722.25;;;999.90;;
40621;SDS011;26324;52.040;11.528;2022-07-29T11:44:57;1789.25;;;999.90;;
40621;SDS011;26324;52.040;11.528;2022-07-29T11:47:28;1743.85;;;999.90;;
40621;SDS011;26324;52.040;11.528;2022-07-29T11:49:55;1703.53;;;999.90;;
40621;SDS011;26324;52.040;11.528;2022-07-29T11:52:22;1668.93;;;999.90;;
40621;SDS011;26324;52.040;11.528;2022-07-29T11:54:49;1999.90;;;999.90;;
40621;SDS011;26324;52.040;11.528;2022-07-29T11:57:19;1848.15;;;999.90;;
40621;SDS011;26324;52.040;11.528;2022-07-29T11:59:46;1823.03;;;999.90;;
40621;SDS011;26324;52.040;11.528;2022-07-29T12:02:12;1752.90;;;999.90;;
40621;SDS011;26324;52.040;11.528;2022-07-29T12:04:51;1999.90;;;999.90;;
40621;SDS011;26324;52.040;11.528;2022-07-29T12:07:28;1999.90;;;999.90;;
40621;SDS011;26324;52.040;11.528;2022-07-29T12:09:54;1650.63;;;999.90;;
40621;SDS011;26324;52.040;11.528;2022-07-29T12:12:20;1888.82;;;999.90;;
40621;SDS011;26324;52.040;11.528;2022-07-29T12:14:48;1702.15;;;999.90;;
40621;SDS011;26324;52.040;11.528;2022-07-29T12:17:27;1758.68;;;999.90;;
40621;SDS011;26324;52.040;11.528;2022-07-29T12:19:56;1649.90;;;999.90;;
40621;SDS011;26324;52.040;11.528;2022-07-29T12:22:26;1930.07;;;999.90;;
40621;SDS011;26324;52.040;11.528;2022-07-29T12:24:53;1807.72;;;999.90;;
40621;SDS011;26324;52.040;11.528;2022-07-29T12:27:20;1946.47;;;999.90;;
40621;SDS011;26324;52.040;11.528;2022-07-29T12:35:09;1999.90;;;999.90;;
40621;SDS011;26324;52.040;11.528;2022-07-29T12:37:39;1803.13;;;999.90;;
40621;SDS011;26324;52.040;11.528;2022-07-29T12:40:07;1839.90;;;999.90;;
40621;SDS011;26324;52.040;11.528;2022-07-29T12:42:34;1999.90;;;999.90;;
40621;SDS011;26324;52.040;11.528;2022-07-29T12:45:00;1643.60;;;999.90;;
40621;SDS011;26324;52.040;11.528;2022-07-29T12:47:26;1999.90;;;999.90;;
40621;SDS011;26324;52.040;11.528;2022-07-29T12:50:07;1981.35;;;955.08;;
40621;SDS011;26324;52.040;11.528;2022-07-29T12:52:39;1991.70;;;999.90;;
40621;SDS011;26324;52.040;11.528;2022-07-29T12:55:08;1999.90;;;999.90;;
40621;SDS011;26324;52.040;11.528;2022-07-29T12:57:50;1999.90;;;999.90;;
40621;SDS011;26324;52.040;11.528;2022-07-29T13:00:23;1653.82;;;999.90;;
40621;SDS011;26324;52.040;11.528;2022-07-29T13:02:58;1317.13;;;999.90;;
40621;SDS011;26324;52.040;11.528;2022-07-29T13:05:38;1413.38;;;999.90;;
40621;SDS011;26324;52.040;11.528;2022-07-29T13:08:09;1999.90;;;893.17;;
40621;SDS011;26324;52.040;11.528;2022-07-29T13:10:38;1960.38;;;797.35;;
40621;SDS011;26324;52.040;11.528;2022-07-29T13:13:12;1999.90;;;999.90;;
40621;SDS011;26324;52.040;11.528;2022-07-29T13:15:45;1923.65;;;999.90;;
40621;SDS011;26324;52.040;11.528;2022-07-29T13:21:10;1916.05;;;999.90;;
40621;SDS011;26324;52.040;11.528;2022-07-29T13:23:38;1868.82;;;999.90;;
40621;SDS011;26324;52.040;11.528;2022-07-29T13:26:08;1640.97;;;999.90;;
40621;SDS011;26324;52.040;11.528;2022-07-29T13:28:37;1568.95;;;999.90;;
40621;SDS011;26324;52.040;11.528;2022-07-29T13:31:03;1487.05;;;999.90;;
40621;SDS011;26324;52.040;11.528;2022-07-29T13:33:30;1588.38;;;999.90;;
40621;SDS011;26324;52.040;11.528;2022-07-29T13:36:03;1476.57;;;999.90;;
40621;SDS011;26324;52.040;11.528;2022-07-29T13:38:28;1813.70;;;999.90;;
40621;SDS011;26324;52.040;11.528;2022-07-29T13:40:54;1211.90;;;999.90;;
40621;SDS011;26324;52.040;11.528;2022-07-29T13:43:23;1259.03;;;999.90;;
40621;SDS011;26324;52.040;11.528;2022-07-29T13:45:49;1437.57;;;999.90;;
40621;SDS011;26324;52.040;11.528;2022-07-29T13:48:15;1157.22;;;999.90;;
40621;SDS011;26324;52.040;11.528;2022-07-29T13:50:41;1191.32;;;980.45;;
40621;SDS011;26324;52.040;11.528;2022-07-29T13:53:11;1145.47;;;999.90;;
40621;SDS011;26324;52.040;11.528;2022-07-29T13:55:39;1142.78;;;999.90;;
40621;SDS011;26324;52.040;11.528;2022-07-29T13:58:09;1135.05;;;999.90;;
40621;SDS011;26324;52.040;11.528;2022-07-29T14:00:37;1455.20;;;999.90;;
40621;SDS011;26324;52.040;11.528;2022-07-29T14:03:06;1330.47;;;999.90;;
40621;SDS011;26324;52.040;11.528;2022-07-29T14:05:31;1384.57;;;999.90;;
40621;SDS011;26324;52.040;11.528;2022-07-29T14:07:57;1320.05;;;999.90;;
40621;SDS011;26324;52.040;11.528;2022-07-29T14:10:22;1371.15;;;999.90;;
40621;SDS011;26324;52.040;11.528;2022-07-29T14:12:48;1406.53;;;999.90;;
40621;SDS011;26324;52.040;11.528;2022-07-29T14:15:13;1502.05;;;999.90;;
40621;SDS011;26324;52.040;11.528;2022-07-29T14:17:39;1508.40;;;999.90;;
40621;SDS011;26324;52.040;11.528;2022-07-29T14:20:05;1511.07;;;999.90;;
40621;SDS011;26324;52.040;11.528;2022-07-29T14:22:31;1621.85;;;999.90;;
40621;SDS011;26324;52.040;11.528;2022-07-29T14:24:58;1338.10;;;999.90;;
40621;SDS011;26324;52.040;11.528;2022-07-29T14:27:23;1165.78;;;999.90;;
40621;SDS011;26324;52.040;11.528;2022-07-29T14:29:51;1058.57;;;968.67;;
40621;SDS011;26324;52.040;11.528;2022-07-29T14:32:16;1014.22;;;933.10;;
40621;SDS011;26324;52.040;11.528;2022-07-29T14:34:42;1034.60;;;946.67;;